createdAt,value
2022-09-01T00:00:52.770Z,15.70
2022-09-01T00:03:24.527Z,15.60
2022-09-01T00:05:55.138Z,15.60
2022-09-01T00:08:23.334Z,15.70
2022-09-01T00:10:50.733Z,15.70
2022-09-01T00:13:18.576Z,15.70
2022-09-01T00:15:45.616Z,15.50
2022-09-01T00:18:13.888Z,15.40
2022-09-01T00:20:42.300Z,15.40
2022-09-01T00:23:09.479Z,15.40
2022-09-01T00:25:37.048Z,15.40
2022-09-01T00:28:05.290Z,15.40
2022-09-01T00:30:32.234Z,15.20
2022-09-01T00:32:59.457Z,15.20
2022-09-01T00:35:26.544Z,15.20
2022-09-01T00:37:55.023Z,15.30
2022-09-01T00:40:24.514Z,15.30
2022-09-01T00:42:54.033Z,15.30
2022-09-01T00:45:22.708Z,15.40
2022-09-01T00:47:50.233Z,15.30
2022-09-01T00:50:18.828Z,15.20
2022-09-01T00:52:51.161Z,15.20
2022-09-01T00:55:25.509Z,15.10
2022-09-01T00:57:53.066Z,15.20
2022-09-01T01:00:23.360Z,15.40
2022-09-01T01:02:56.438Z,15.40
2022-09-01T01:05:27.860Z,15.20
2022-09-01T01:07:56.225Z,15.10
2022-09-01T01:10:26.745Z,15.00
2022-09-01T01:12:54.440Z,15.00
2022-09-01T01:15:21.369Z,14.90
2022-09-01T01:17:48.283Z,14.90
2022-09-01T01:20:36.021Z,14.90
2022-09-01T01:23:11.051Z,15.00
2022-09-01T01:25:42.655Z,15.00
2022-09-01T01:28:14.060Z,15.20
2022-09-01T01:30:43.293Z,15.20
2022-09-01T01:33:11.601Z,15.20
2022-09-01T01:35:39.964Z,15.20
2022-09-01T01:38:07.893Z,15.30
2022-09-01T01:40:36.237Z,15.30
2022-09-01T01:43:04.939Z,15.30
2022-09-01T01:45:31.910Z,15.10
2022-09-01T01:48:01.099Z,14.90
2022-09-01T01:50:33.819Z,14.90
2022-09-01T01:53:01.326Z,14.90
2022-09-01T01:55:29.212Z,15.00
2022-09-01T01:57:56.501Z,15.00
2022-09-01T02:00:30.382Z,15.00
2022-09-01T02:02:58.757Z,15.00
2022-09-01T02:05:28.800Z,14.90
2022-09-01T02:07:59.924Z,14.90
2022-09-01T02:10:31.358Z,14.90
2022-09-01T02:13:03.607Z,14.90
2022-09-01T02:15:43.559Z,14.80
2022-09-01T02:18:14.217Z,14.80
2022-09-01T02:20:42.204Z,14.70
2022-09-01T02:23:11.550Z,14.60
2022-09-01T02:26:14.120Z,14.60
2022-09-01T02:28:37.032Z,14.60
2022-09-01T02:31:06.022Z,14.60
2022-09-01T02:33:33.018Z,14.50
2022-09-01T02:36:03.339Z,14.50
2022-09-01T02:38:31.146Z,14.40
2022-09-01T02:41:00.307Z,14.40
2022-09-01T02:43:28.381Z,14.40
2022-09-01T02:46:00.327Z,14.50
2022-09-01T02:48:36.147Z,14.40
2022-09-01T02:51:04.590Z,14.60
2022-09-01T02:53:34.605Z,14.50
2022-09-01T02:56:02.403Z,14.50
2022-09-01T02:58:34.534Z,14.50
2022-09-01T03:01:01.512Z,14.40
2022-09-01T03:03:31.335Z,14.40
2022-09-01T03:05:58.271Z,14.30
2022-09-01T03:08:25.785Z,14.20
2022-09-01T03:10:53.914Z,14.20
2022-09-01T03:13:24.202Z,14.20
2022-09-01T03:15:51.535Z,14.20
2022-09-01T03:18:19.166Z,14.20
2022-09-01T03:20:49.412Z,14.20
2022-09-01T03:23:19.514Z,14.20
2022-09-01T03:25:49.089Z,14.20
2022-09-01T03:28:17.098Z,14.20
2022-09-01T03:30:47.605Z,14.20
2022-09-01T03:33:15.288Z,14.20
2022-09-01T03:35:42.379Z,14.20
2022-09-01T03:38:13.213Z,14.20
2022-09-01T03:40:40.676Z,14.10
2022-09-01T03:43:13.224Z,14.00
2022-09-01T03:45:41.279Z,13.90
2022-09-01T03:48:09.632Z,13.80
2022-09-01T03:50:41.354Z,13.80
2022-09-01T03:53:10.281Z,13.70
2022-09-01T03:55:38.214Z,13.70
2022-09-01T03:58:10.007Z,13.70
2022-09-01T04:00:40.002Z,13.80
2022-09-01T04:03:08.883Z,13.80
2022-09-01T04:05:38.024Z,13.80
2022-09-01T04:08:06.974Z,13.70
2022-09-01T04:10:38.607Z,13.60
2022-09-01T04:13:05.568Z,13.70
2022-09-01T04:15:33.876Z,13.60
2022-09-01T04:18:10.189Z,13.60
2022-09-01T04:20:57.145Z,13.60
2022-09-01T04:23:29.966Z,13.60
2022-09-01T04:26:08.838Z,13.60
2022-09-01T04:28:38.982Z,13.70
2022-09-01T04:31:09.384Z,13.70
2022-09-01T04:33:40.225Z,13.90
2022-09-01T04:36:19.208Z,14.00
2022-09-01T04:38:47.368Z,13.90
2022-09-01T04:41:20.601Z,13.90
2022-09-01T04:43:49.033Z,13.90
2022-09-01T04:46:16.331Z,13.90
2022-09-01T04:48:46.143Z,13.80
2022-09-01T04:51:15.736Z,13.80
2022-09-01T04:53:48.773Z,13.80
2022-09-01T04:56:23.370Z,13.80
2022-09-01T04:58:52.167Z,13.90
2022-09-01T05:01:27.865Z,13.80
2022-09-01T05:04:01.367Z,13.80
2022-09-01T05:06:34.145Z,13.80
2022-09-01T05:09:00.948Z,13.80
2022-09-01T05:11:29.366Z,13.80
2022-09-01T05:13:57.780Z,13.70
2022-09-01T05:16:28.219Z,13.60
2022-09-01T05:18:57.831Z,13.50
2022-09-01T05:21:26.617Z,13.70
2022-09-01T05:23:54.270Z,13.60
2022-09-01T05:26:24.148Z,13.70
2022-09-01T05:28:54.892Z,13.80
2022-09-01T05:31:22.916Z,13.80
2022-09-01T05:33:50.885Z,13.80
2022-09-01T05:36:20.459Z,13.90
2022-09-01T05:38:48.910Z,14.00
2022-09-01T05:41:18.289Z,14.00
2022-09-01T05:43:47.096Z,13.90
2022-09-01T05:46:17.411Z,13.90
2022-09-01T05:48:44.753Z,13.90
2022-09-01T05:51:40.389Z,13.90
2022-09-01T05:54:04.983Z,13.90
2022-09-01T05:56:33.896Z,14.00
2022-09-01T06:01:51.053Z,14.10
2022-09-01T06:04:18.085Z,14.20
2022-09-01T06:07:06.464Z,14.40
2022-09-01T06:09:38.215Z,14.40
2022-09-01T06:12:06.128Z,14.50
2022-09-01T06:14:32.980Z,14.50
2022-09-01T06:17:03.150Z,14.50
2022-09-01T06:19:34.788Z,14.60
2022-09-01T06:22:03.657Z,14.70
2022-09-01T06:24:30.534Z,14.60
2022-09-01T06:26:57.466Z,14.50
2022-09-01T06:29:24.716Z,14.40
2022-09-01T06:31:52.790Z,14.50
2022-09-01T06:34:21.230Z,14.40
2022-09-01T06:36:49.510Z,14.40
2022-09-01T06:39:20.363Z,14.40
2022-09-01T06:41:52.535Z,14.40
2022-09-01T06:44:23.021Z,14.50
2022-09-01T06:46:51.672Z,14.50
2022-09-01T06:49:19.385Z,14.50
2022-09-01T06:51:49.646Z,14.70
2022-09-01T06:54:19.930Z,14.70
2022-09-01T06:56:51.885Z,14.80
2022-09-01T06:59:20.699Z,14.90
2022-09-01T07:01:48.988Z,14.80
2022-09-01T07:04:22.425Z,14.80
2022-09-01T07:07:53.326Z,14.80
2022-09-01T07:09:47.693Z,14.90
2022-09-01T07:12:27.943Z,14.90
2022-09-01T07:17:42.618Z,15.10
2022-09-01T07:20:27.636Z,15.40
2022-09-01T07:23:06.491Z,15.60
2022-09-01T07:26:00.376Z,15.70
2022-09-01T07:28:36.118Z,15.90
2022-09-01T07:39:51.170Z,16.50
2022-09-01T07:47:56.814Z,16.80
2022-09-01T07:50:40.298Z,17.00
2022-09-01T07:53:17.635Z,17.10
2022-09-01T07:55:46.916Z,17.20
2022-09-01T07:58:14.261Z,17.30
2022-09-01T08:00:46.060Z,17.40
2022-09-01T08:03:13.849Z,17.50
2022-09-01T08:05:41.023Z,17.60
2022-09-01T08:08:28.411Z,17.70
2022-09-01T08:11:04.236Z,18.00
2022-09-01T08:13:34.650Z,18.00
2022-09-01T08:16:08.508Z,18.00
2022-09-01T08:18:51.297Z,18.10
2022-09-01T08:21:22.377Z,18.10
2022-09-01T08:23:49.583Z,18.30
2022-09-01T08:26:20.297Z,18.30
2022-09-01T08:28:54.991Z,18.40
2022-09-01T08:31:24.330Z,18.40
2022-09-01T08:33:52.138Z,18.50
2022-09-01T08:36:24.066Z,18.60
2022-09-01T08:38:53.595Z,18.60
2022-09-01T08:41:35.116Z,18.70
2022-09-01T08:44:14.264Z,18.80
2022-09-01T08:46:43.906Z,18.90
2022-09-01T08:49:25.167Z,18.90
2022-09-01T08:51:57.806Z,19.00
2022-09-01T08:54:31.933Z,19.10
2022-09-01T08:57:05.348Z,19.20
2022-09-01T08:59:32.144Z,19.20
2022-09-01T09:02:16.367Z,19.20
2022-09-01T09:04:55.043Z,19.20
2022-09-01T09:07:32.866Z,19.20
2022-09-01T09:10:09.916Z,19.30
2022-09-01T09:12:53.636Z,19.30
2022-09-01T09:15:27.896Z,19.40
2022-09-01T09:18:01.790Z,19.40
2022-09-01T09:20:34.257Z,19.40
2022-09-01T09:23:07.262Z,19.50
2022-09-01T09:25:34.401Z,19.50
2022-09-01T09:28:03.020Z,19.60
2022-09-01T09:30:32.724Z,19.60
2022-09-01T09:35:51.052Z,19.60
2022-09-01T09:38:24.334Z,19.70
2022-09-01T09:43:51.954Z,19.80
2022-09-01T09:46:26.801Z,19.90
2022-09-01T09:49:16.612Z,20.00
2022-09-01T09:51:49.121Z,20.10
2022-09-01T09:54:21.385Z,20.20
2022-09-01T09:57:02.252Z,20.20
2022-09-01T09:59:57.052Z,20.20
2022-09-01T10:02:27.880Z,20.20
2022-09-01T10:04:56.287Z,20.20
2022-09-01T10:07:32.644Z,20.20
2022-09-01T10:10:01.843Z,20.10
2022-09-01T10:12:30.647Z,20.20
2022-09-01T10:15:06.967Z,20.20
2022-09-01T10:17:43.563Z,20.30
2022-09-01T10:20:15.310Z,20.40
2022-09-01T10:22:42.527Z,20.50
2022-09-01T10:25:17.884Z,20.60
2022-09-01T10:27:48.597Z,20.80
2022-09-01T10:30:20.044Z,20.80
2022-09-01T10:32:55.218Z,20.80
2022-09-01T10:35:26.808Z,20.80
2022-09-01T10:37:57.912Z,20.80
2022-09-01T10:40:41.367Z,20.90
2022-09-01T10:43:27.354Z,21.10
2022-09-01T10:46:03.724Z,21.10
2022-09-01T10:48:46.336Z,21.20
2022-09-01T10:51:50.522Z,21.30
2022-09-01T10:54:56.186Z,21.50
2022-09-01T10:57:44.911Z,21.60
2022-09-01T11:04:01.443Z,21.90
2022-09-01T11:09:44.366Z,21.90
2022-09-01T11:12:41.946Z,22.10
2022-09-01T11:15:35.692Z,22.20
2022-09-01T11:18:09.695Z,22.40
2022-09-01T11:20:39.187Z,22.60
2022-09-01T11:23:11.629Z,22.70
2022-09-01T11:25:43.971Z,22.80
2022-09-01T11:28:42.283Z,22.90
2022-09-01T11:31:29.783Z,22.90
2022-09-01T11:34:10.961Z,23.10
2022-09-01T11:36:51.085Z,23.10
2022-09-01T11:39:33.136Z,23.20
2022-09-01T11:42:04.605Z,23.10
2022-09-01T11:44:39.253Z,23.10
2022-09-01T11:47:12.086Z,23.30
2022-09-01T11:49:48.754Z,23.30
2022-09-01T11:52:18.108Z,23.60
2022-09-01T11:54:46.650Z,23.80
2022-09-01T11:57:27.729Z,24.10
2022-09-01T11:59:56.166Z,24.30
2022-09-01T12:02:25.466Z,24.60
2022-09-01T12:04:55.346Z,24.80
2022-09-01T12:07:40.293Z,24.90
2022-09-01T12:10:17.355Z,25.00
2022-09-01T12:12:44.435Z,25.10
2022-09-01T12:15:19.422Z,25.20
2022-09-01T12:17:46.972Z,25.10
2022-09-01T12:20:28.829Z,24.90
2022-09-01T12:22:56.930Z,24.80
2022-09-01T12:25:27.158Z,24.50
2022-09-01T12:27:55.247Z,24.10
2022-09-01T12:30:23.558Z,23.80
2022-09-01T12:32:50.799Z,23.60
2022-09-01T12:35:22.494Z,24.10
2022-09-01T12:37:50.409Z,24.60
2022-09-01T12:40:26.264Z,25.10
2022-09-01T12:42:53.866Z,25.50
2022-09-01T12:45:38.811Z,25.90
2022-09-01T12:48:06.166Z,26.20
2022-09-01T12:50:45.120Z,26.50
2022-09-01T12:53:20.013Z,26.50
2022-09-01T12:56:05.932Z,26.80
2022-09-01T12:58:33.428Z,27.00
2022-09-01T13:01:05.566Z,26.60
2022-09-01T13:03:34.591Z,26.30
2022-09-01T13:06:03.897Z,26.00
2022-09-01T13:08:33.116Z,26.30
2022-09-01T13:11:04.064Z,26.60
2022-09-01T13:13:31.706Z,26.30
2022-09-01T13:16:02.566Z,25.60
2022-09-01T13:18:30.434Z,25.00
2022-09-01T13:20:59.375Z,24.50
2022-09-01T13:23:27.841Z,24.80
2022-09-01T13:25:54.763Z,25.10
2022-09-01T13:36:52.166Z,24.60
2022-09-01T13:39:21.400Z,25.70
2022-09-01T13:41:48.959Z,26.70
2022-09-01T13:44:17.246Z,27.30
2022-09-01T13:47:00.972Z,27.80
2022-09-01T13:52:20.251Z,28.80
2022-09-01T13:54:48.426Z,28.90
2022-09-01T13:57:16.843Z,28.70
2022-09-01T13:59:43.787Z,28.90
2022-09-01T14:02:11.083Z,29.10
2022-09-01T14:04:38.565Z,29.20
2022-09-01T14:07:06.211Z,29.40
2022-09-01T14:09:33.614Z,29.60
2022-09-01T14:12:02.029Z,29.80
2022-09-01T14:15:10.552Z,29.80
2022-09-01T14:17:15.895Z,29.80
2022-09-01T14:19:42.916Z,29.60
2022-09-01T14:22:09.763Z,29.70
2022-09-01T14:24:40.304Z,29.20
2022-09-01T14:27:09.505Z,28.10
2022-09-01T14:32:04.537Z,26.80
2022-09-01T14:34:31.379Z,27.30
2022-09-01T14:36:58.653Z,27.90
2022-09-01T14:39:26.334Z,28.50
2022-09-01T14:41:53.587Z,29.00
2022-09-01T14:44:21.744Z,29.10
2022-09-01T14:46:49.589Z,29.40
2022-09-01T14:49:22.519Z,29.30
2022-09-01T14:54:38.997Z,28.90
2022-09-01T14:59:55.270Z,28.80
2022-09-01T15:02:22.441Z,29.00
2022-09-01T15:04:49.347Z,29.00
2022-09-01T15:07:16.363Z,29.00
2022-09-01T15:09:43.517Z,29.00
2022-09-01T15:12:10.376Z,29.20
2022-09-01T15:14:38.175Z,29.60
2022-09-01T15:17:07.023Z,29.80
2022-09-01T15:19:34.775Z,30.10
2022-09-01T15:22:02.334Z,30.30
2022-09-01T15:24:29.616Z,30.30
2022-09-01T15:26:56.491Z,29.40
2022-09-01T15:29:23.730Z,28.60
2022-09-01T15:31:50.658Z,27.70
2022-09-01T15:34:19.262Z,26.80
2022-09-01T15:36:46.127Z,26.20
2022-09-01T15:39:13.328Z,25.70
2022-09-01T15:41:40.195Z,25.30
2022-09-01T15:44:07.962Z,25.00
2022-09-01T15:46:36.220Z,24.70
2022-09-01T15:49:06.041Z,24.70
2022-09-01T15:51:36.800Z,24.50
2022-09-01T15:54:05.982Z,24.40
2022-09-01T15:56:33.334Z,24.30
2022-09-01T15:59:02.303Z,24.30
2022-09-01T16:01:32.142Z,24.20
2022-09-01T16:03:59.520Z,24.50
2022-09-01T16:06:26.795Z,25.30
2022-09-01T16:08:55.145Z,26.20
2022-09-01T16:11:23.729Z,26.40
2022-09-01T16:13:53.736Z,26.60
2022-09-01T16:16:37.409Z,26.60
2022-09-01T16:19:27.934Z,26.10
2022-09-01T16:22:02.776Z,25.50
2022-09-01T16:24:33.033Z,25.20
2022-09-01T16:27:00.580Z,24.70
2022-09-01T16:29:35.876Z,24.30
2022-09-01T16:32:03.317Z,24.00
2022-09-01T16:34:32.025Z,23.60
2022-09-01T16:37:04.912Z,23.60
2022-09-01T16:39:40.477Z,23.40
2022-09-01T16:42:26.684Z,23.10
2022-09-01T16:45:03.785Z,23.10
2022-09-01T16:47:44.241Z,23.00
2022-09-01T16:50:21.829Z,23.00
2022-09-01T16:53:10.378Z,22.80
2022-09-01T16:55:57.925Z,22.70
2022-09-01T16:58:32.175Z,22.70
2022-09-01T17:01:11.426Z,22.70
2022-09-01T17:03:54.629Z,22.60
2022-09-01T17:06:27.191Z,22.60
2022-09-01T17:09:06.987Z,22.50
2022-09-01T17:11:49.071Z,22.50
2022-09-01T17:14:22.853Z,22.40
2022-09-01T17:16:54.564Z,22.30
2022-09-01T17:19:22.475Z,22.30
2022-09-01T17:21:53.956Z,22.20
2022-09-01T17:24:31.984Z,22.20
2022-09-01T17:27:07.840Z,22.20
2022-09-01T17:29:43.472Z,22.20
2022-09-01T17:32:19.004Z,22.00
2022-09-01T17:34:54.099Z,21.90
2022-09-01T17:37:32.319Z,21.80
2022-09-01T17:40:10.344Z,21.60
2022-09-01T17:42:50.716Z,21.40
2022-09-01T17:45:29.046Z,21.20
2022-09-01T17:48:06.243Z,21.10
2022-09-01T17:51:01.082Z,21.00
2022-09-01T17:53:40.064Z,20.90
2022-09-01T17:56:19.242Z,20.80
2022-09-01T17:58:55.747Z,20.80
2022-09-01T18:01:29.309Z,20.70
2022-09-01T18:04:20.146Z,20.70
2022-09-01T18:06:52.288Z,20.60
2022-09-01T18:09:24.716Z,20.60
2022-09-01T18:11:57.822Z,20.40
2022-09-01T18:14:33.587Z,20.30
2022-09-01T18:17:04.918Z,20.30
2022-09-01T18:19:36.315Z,20.30
2022-09-01T18:22:08.408Z,20.20
2022-09-01T18:24:43.826Z,20.10
2022-09-01T18:27:12.869Z,20.00
2022-09-01T18:29:42.041Z,19.90
2022-09-01T18:32:18.946Z,19.80
2022-09-01T18:35:05.500Z,19.80
2022-09-01T18:37:40.407Z,19.70
2022-09-01T18:40:17.320Z,19.60
2022-09-01T18:42:53.417Z,19.60
2022-09-01T18:45:31.361Z,19.50
2022-09-01T18:48:07.861Z,19.50
2022-09-01T18:50:45.674Z,19.50
2022-09-01T18:53:24.273Z,19.40
2022-09-01T18:55:57.753Z,19.30
2022-09-01T18:58:48.804Z,19.30
2022-09-01T19:01:29.080Z,19.30
2022-09-01T19:04:09.510Z,19.20
2022-09-01T19:06:45.864Z,19.10
2022-09-01T19:09:17.817Z,19.00
2022-09-01T19:12:02.063Z,19.00
2022-09-01T19:14:34.853Z,19.00
2022-09-01T19:17:21.348Z,18.90
2022-09-01T19:19:53.779Z,18.90
2022-09-01T19:22:33.802Z,18.90
2022-09-01T19:25:24.171Z,18.80
2022-09-01T19:27:58.458Z,18.70
2022-09-01T19:30:25.661Z,18.80
2022-09-01T19:32:55.871Z,18.70
2022-09-01T19:35:23.258Z,18.60
2022-09-01T19:37:51.605Z,18.60
2022-09-01T19:40:24.756Z,18.60
2022-09-01T19:42:57.118Z,18.60
2022-09-01T19:45:30.011Z,18.50
2022-09-01T19:48:04.716Z,18.50
2022-09-01T19:50:38.578Z,18.40
2022-09-01T19:53:12.749Z,18.30
2022-09-01T19:55:47.698Z,18.30
2022-09-01T19:58:19.660Z,18.30
2022-09-01T20:00:52.529Z,18.30
2022-09-01T20:03:26.290Z,18.30
2022-09-01T20:05:56.434Z,18.20
2022-09-01T20:08:29.481Z,18.20
2022-09-01T20:11:01.231Z,18.10
2022-09-01T20:13:54.401Z,18.10
2022-09-01T20:16:27.531Z,18.00
2022-09-01T20:19:02.296Z,17.90
2022-09-01T20:21:29.592Z,17.90
2022-09-01T20:24:02.786Z,17.80
2022-09-01T20:26:34.422Z,17.80
2022-09-01T20:29:11.134Z,17.70
2022-09-01T20:31:45.422Z,17.70
2022-09-01T20:34:21.553Z,17.70
2022-09-01T20:36:51.942Z,17.70
2022-09-01T20:39:47.541Z,17.70
2022-09-01T20:42:19.743Z,17.70
2022-09-01T20:44:52.795Z,17.70
2022-09-01T20:47:22.564Z,17.70
2022-09-01T20:49:51.430Z,17.60
2022-09-01T20:52:26.509Z,17.50
2022-09-01T20:54:58.373Z,17.50
2022-09-01T20:57:36.539Z,17.40
2022-09-01T21:00:09.016Z,17.50
2022-09-01T21:02:43.618Z,17.40
2022-09-01T21:05:26.302Z,17.40
2022-09-01T21:08:00.650Z,17.30
2022-09-01T21:10:37.506Z,17.30
2022-09-01T21:13:14.312Z,17.30
2022-09-01T21:15:48.102Z,17.30
2022-09-01T21:18:30.902Z,17.30
2022-09-01T21:21:06.852Z,17.20
2022-09-01T21:23:34.367Z,17.30
2022-09-01T21:26:01.781Z,17.20
2022-09-01T21:28:29.632Z,17.20
2022-09-01T21:30:58.436Z,17.20
2022-09-01T21:33:28.735Z,17.10
2022-09-01T21:35:55.920Z,17.00
2022-09-01T21:38:25.216Z,17.00
2022-09-01T21:40:53.774Z,17.00
2022-09-01T21:43:24.321Z,16.90
2022-09-01T21:45:51.493Z,17.00
2022-09-01T21:48:21.476Z,17.00
2022-09-01T21:50:48.491Z,16.90
2022-09-01T21:53:16.447Z,16.80
2022-09-01T21:55:45.176Z,16.80
2022-09-01T21:58:12.668Z,16.70
2022-09-01T22:00:40.493Z,16.70
2022-09-01T22:03:08.173Z,16.60
2022-09-01T22:05:41.183Z,16.60
2022-09-01T22:08:08.725Z,16.60
2022-09-01T22:10:35.777Z,16.60
2022-09-01T22:13:04.104Z,16.50
2022-09-01T22:15:31.693Z,16.50
2022-09-01T22:17:59.181Z,16.50
2022-09-01T22:20:29.222Z,16.50
2022-09-01T22:23:02.158Z,16.40
2022-09-01T22:25:31.015Z,16.40
2022-09-01T22:28:01.960Z,16.40
2022-09-01T22:30:30.865Z,16.40
2022-09-01T22:32:58.347Z,16.40
2022-09-01T22:35:25.251Z,16.40
2022-09-01T22:37:52.309Z,16.30
2022-09-01T22:40:20.373Z,16.30
2022-09-01T22:42:47.734Z,16.30
2022-09-01T22:45:15.263Z,16.30
2022-09-01T22:47:44.261Z,16.40
2022-09-01T22:50:11.635Z,16.40
2022-09-01T22:52:40.190Z,16.30
2022-09-01T22:55:08.924Z,16.30
2022-09-01T22:57:36.737Z,16.20
2022-09-01T23:00:08.442Z,16.10
2022-09-01T23:02:35.996Z,16.10
2022-09-01T23:05:06.064Z,16.00
2022-09-01T23:07:36.100Z,16.00
2022-09-01T23:10:06.520Z,16.10
2022-09-01T23:12:33.761Z,16.10
2022-09-01T23:15:00.591Z,16.10
2022-09-01T23:17:27.780Z,16.10
2022-09-01T23:19:54.814Z,16.00
2022-09-01T23:22:23.396Z,16.00
2022-09-01T23:24:50.547Z,15.90
2022-09-01T23:27:18.144Z,15.70
2022-09-01T23:29:45.045Z,15.70
2022-09-01T23:32:12.214Z,15.60
2022-09-01T23:34:39.270Z,15.60
2022-09-01T23:37:06.488Z,15.50
2022-09-01T23:39:34.903Z,15.50
2022-09-01T23:42:02.050Z,15.50
2022-09-01T23:44:28.922Z,15.60
2022-09-01T23:46:56.188Z,15.60
2022-09-01T23:49:23.432Z,15.60
2022-09-01T23:51:53.890Z,15.50
2022-09-01T23:54:21.559Z,15.60
2022-09-01T23:56:50.180Z,15.60
2022-09-01T23:59:17.148Z,15.70
